createdAt,value
2018-01-18T00:00:53.677Z,99754.28
2018-01-18T00:01:56.144Z,99755.80
2018-01-18T00:02:58.608Z,99757.34
2018-01-18T00:04:01.076Z,99757.34
2018-01-18T00:05:03.575Z,99750.02
2018-01-18T00:06:06.030Z,99749.79
2018-01-18T00:07:08.500Z,99749.73
2018-01-18T00:08:11.312Z,99747.16
2018-01-18T00:09:13.762Z,99751.84
2018-01-18T00:10:16.238Z,99753.56
2018-01-18T00:11:18.701Z,99750.98
2018-01-18T00:12:21.153Z,99750.77
2018-01-18T00:13:23.623Z,99748.58
2018-01-18T00:14:26.083Z,99750.13
2018-01-18T00:15:28.574Z,99750.70
2018-01-18T00:16:31.035Z,99747.33
2018-01-18T00:17:33.508Z,99740.63
2018-01-18T00:18:35.961Z,99744.34
2018-01-18T00:19:38.428Z,99741.34
2018-01-18T00:20:40.902Z,99743.86
2018-01-18T00:21:43.368Z,99741.28
2018-01-18T00:22:45.832Z,99735.95
2018-01-18T00:23:48.286Z,99731.03
2018-01-18T00:24:50.747Z,99736.70
2018-01-18T00:25:53.234Z,99730.00
2018-01-18T00:26:55.685Z,99733.89
2018-01-18T00:27:58.148Z,99742.71
2018-01-18T00:29:00.597Z,99731.89
2018-01-18T00:30:03.049Z,99731.09
2018-01-18T00:31:05.590Z,99724.97
2018-01-18T00:32:08.056Z,99731.44
2018-01-18T00:33:10.506Z,99719.41
2018-01-18T00:34:12.962Z,99729.77
2018-01-18T00:35:15.417Z,99716.61
2018-01-18T00:36:17.894Z,99717.35
2018-01-18T00:37:20.368Z,99713.23
2018-01-18T00:38:22.844Z,99712.57
2018-01-18T00:39:25.298Z,99716.46
2018-01-18T00:40:27.760Z,99703.70
2018-01-18T00:41:30.244Z,99709.36
2018-01-18T00:42:32.699Z,99700.89
2018-01-18T00:43:35.164Z,99696.94
2018-01-18T00:44:37.628Z,99692.20
2018-01-18T00:45:40.160Z,99689.84
2018-01-18T00:46:42.648Z,99686.88
2018-01-18T00:47:45.102Z,99695.11
2018-01-18T00:48:47.554Z,99686.47
2018-01-18T00:49:50.020Z,99691.56
2018-01-18T00:50:52.488Z,99690.42
2018-01-18T00:51:54.957Z,99683.95
2018-01-18T00:52:57.420Z,99681.03
2018-01-18T00:53:59.874Z,99679.27
2018-01-18T00:55:02.332Z,99681.20
2018-01-18T00:56:04.796Z,99675.89
2018-01-18T00:57:07.272Z,99676.45
2018-01-18T00:58:09.718Z,99672.73
2018-01-18T00:59:12.169Z,99675.83
2018-01-18T01:00:14.622Z,99664.44
2018-01-18T01:01:17.087Z,99662.04
2018-01-18T01:02:19.571Z,99655.17
2018-01-18T01:03:22.022Z,99655.48
2018-01-18T01:04:24.485Z,99651.36
2018-01-18T01:05:26.934Z,99645.24
2018-01-18T01:06:29.386Z,99639.52
2018-01-18T01:07:31.876Z,99638.31
2018-01-18T01:08:34.340Z,99637.48
2018-01-18T01:09:36.828Z,99640.80
2018-01-18T01:10:39.304Z,99635.08
2018-01-18T01:11:41.776Z,99628.39
2018-01-18T01:12:44.267Z,99628.56
2018-01-18T01:13:46.766Z,99623.47
2018-01-18T01:14:49.214Z,99622.33
2018-01-18T01:15:51.720Z,99615.23
2018-01-18T01:16:54.192Z,99611.69
2018-01-18T01:17:56.661Z,99604.81
2018-01-18T01:18:59.128Z,99606.59
2018-01-18T01:20:01.578Z,99601.05
2018-01-18T01:21:04.042Z,99600.08
2018-01-18T01:22:06.500Z,99596.52
2018-01-18T01:23:08.991Z,99598.88
2018-01-18T01:24:11.456Z,99600.02
2018-01-18T01:25:13.905Z,99592.75
2018-01-18T01:26:16.349Z,99587.43
2018-01-18T01:27:18.803Z,99588.97
2018-01-18T01:28:21.278Z,99591.32
2018-01-18T01:29:23.760Z,99585.43
2018-01-18T01:30:26.229Z,99584.05
2018-01-18T01:31:28.684Z,99578.73
2018-01-18T01:32:31.138Z,99575.77
2018-01-18T01:33:33.609Z,99571.64
2018-01-18T01:34:36.081Z,99569.47
2018-01-18T01:35:38.525Z,99570.05
2018-01-18T01:36:40.973Z,99574.16
2018-01-18T01:37:43.476Z,99575.70
2018-01-18T01:38:45.955Z,99572.56
2018-01-18T01:39:48.421Z,99584.52
2018-01-18T01:40:50.888Z,99581.54
2018-01-18T01:41:53.356Z,99577.59
2018-01-18T01:42:55.806Z,99573.05
2018-01-18T01:43:58.281Z,99567.98
2018-01-18T01:45:00.745Z,99564.41
2018-01-18T01:46:03.213Z,99558.12
2018-01-18T01:47:05.667Z,99560.86
2018-01-18T01:48:08.136Z,99551.02
2018-01-18T01:49:10.609Z,99556.34
2018-01-18T01:50:13.062Z,99546.02
2018-01-18T01:51:15.528Z,99539.39
2018-01-18T01:52:18.004Z,99537.89
2018-01-18T01:53:20.469Z,99542.02
2018-01-18T01:54:22.959Z,99536.34
2018-01-18T01:55:25.417Z,99524.80
2018-01-18T01:56:27.888Z,99526.22
2018-01-18T01:57:30.356Z,99521.53
2018-01-18T01:58:32.878Z,99518.61
2018-01-18T01:59:35.344Z,99504.88
2018-01-18T02:00:37.808Z,99498.59
2018-01-18T02:01:40.273Z,99494.64
2018-01-18T02:02:42.749Z,99490.13
2018-01-18T02:03:45.218Z,99480.29
2018-01-18T02:04:47.697Z,99488.70
2018-01-18T02:05:50.154Z,99492.19
2018-01-18T02:06:52.636Z,99489.80
2018-01-18T02:07:55.108Z,99490.54
2018-01-18T02:08:57.579Z,99483.19
2018-01-18T02:10:00.087Z,99481.41
2018-01-18T02:11:02.541Z,99479.81
2018-01-18T02:12:05.049Z,99475.70
2018-01-18T02:13:07.479Z,99471.75
2018-01-18T02:14:09.952Z,99479.59
2018-01-18T02:15:12.443Z,99474.67
2018-01-18T02:16:14.916Z,99479.36
2018-01-18T02:17:17.380Z,99479.14
2018-01-18T02:18:19.860Z,99481.88
2018-01-18T02:19:22.348Z,99481.48
2018-01-18T02:20:24.830Z,99482.45
2018-01-18T02:21:27.286Z,99483.25
2018-01-18T02:22:29.743Z,99481.66
2018-01-18T02:23:32.208Z,99475.77
2018-01-18T02:24:34.676Z,99476.34
2018-01-18T02:25:37.152Z,99474.56
2018-01-18T02:26:39.613Z,99471.82
2018-01-18T02:27:42.081Z,99468.27
2018-01-18T02:28:44.559Z,99457.87
2018-01-18T02:29:47.018Z,99456.49
2018-01-18T02:30:49.503Z,99450.78
2018-01-18T02:31:51.958Z,99450.38
2018-01-18T02:32:54.410Z,99443.69
2018-01-18T02:33:56.893Z,99428.19
2018-01-18T02:34:59.364Z,99420.93
2018-01-18T02:36:01.852Z,99420.13
2018-01-18T02:37:04.325Z,99412.06
2018-01-18T02:38:06.796Z,99413.44
2018-01-18T02:39:09.266Z,99415.39
2018-01-18T02:40:11.721Z,99411.67
2018-01-18T02:41:14.204Z,99404.98
2018-01-18T02:42:16.654Z,99400.86
2018-01-18T02:43:19.124Z,99399.48
2018-01-18T02:44:21.578Z,99397.72
2018-01-18T02:45:24.032Z,99394.00
2018-01-18T02:46:26.513Z,99382.63
2018-01-18T02:47:28.987Z,99374.96
2018-01-18T02:48:31.438Z,99374.96
2018-01-18T02:49:33.889Z,99376.48
2018-01-18T02:50:36.352Z,99373.59
2018-01-18T02:51:38.840Z,99365.50
2018-01-18T02:52:41.311Z,99350.58
2018-01-18T02:53:43.776Z,99339.20
2018-01-18T02:54:46.230Z,99333.88
2018-01-18T02:55:48.683Z,99334.86
2018-01-18T02:56:51.180Z,99335.43
2018-01-18T02:57:53.644Z,99333.66
2018-01-18T02:58:56.108Z,99322.86
2018-01-18T02:59:58.572Z,99325.38
2018-01-18T03:01:01.021Z,99319.09
2018-01-18T03:02:03.513Z,99316.12
2018-01-18T03:03:06.005Z,99308.63
2018-01-18T03:04:08.503Z,99312.52
2018-01-18T03:05:10.957Z,99304.06
2018-01-18T03:06:13.457Z,99299.90
2018-01-18T03:07:15.995Z,99295.55
2018-01-18T03:08:18.455Z,99294.93
2018-01-18T03:09:20.907Z,99290.59
2018-01-18T03:10:23.365Z,99288.25
2018-01-18T03:11:25.886Z,99275.64
2018-01-18T03:12:28.366Z,99270.50
2018-01-18T03:13:30.833Z,99262.27
2018-01-18T03:14:33.311Z,99256.56
2018-01-18T03:15:35.797Z,99251.47
2018-01-18T03:16:38.260Z,99249.70
2018-01-18T03:17:40.743Z,99240.27
2018-01-18T03:18:43.207Z,99237.35
2018-01-18T03:19:45.667Z,99238.33
2018-01-18T03:20:48.129Z,99236.55
2018-01-18T03:21:50.573Z,99227.53
2018-01-18T03:22:53.042Z,99227.53
2018-01-18T03:23:55.512Z,99215.35
2018-01-18T03:24:57.971Z,99213.41
2018-01-18T03:26:00.432Z,99208.49
2018-01-18T03:27:02.899Z,99195.35
2018-01-18T03:28:05.384Z,99189.47
2018-01-18T03:29:07.850Z,99184.55
2018-01-18T03:30:10.310Z,99179.41
2018-01-18T03:31:12.787Z,99178.39
2018-01-18T03:32:15.256Z,99172.68
2018-01-18T03:33:17.724Z,99170.91
2018-01-18T03:34:20.178Z,99166.97
2018-01-18T03:35:22.644Z,99155.78
2018-01-18T03:36:25.111Z,99147.50
2018-01-18T03:37:27.557Z,99151.36
2018-01-18T03:38:30.007Z,99146.05
2018-01-18T03:39:32.480Z,99132.11
2018-01-18T03:40:34.949Z,99115.43
2018-01-18T03:41:37.416Z,99115.60
2018-01-18T03:42:39.873Z,99116.58
2018-01-18T03:43:42.335Z,99106.75
2018-01-18T03:44:44.826Z,99108.70
2018-01-18T03:45:47.278Z,99096.75
2018-01-18T03:46:49.733Z,99090.87
2018-01-18T03:47:52.211Z,99080.69
2018-01-18T03:48:54.671Z,99076.98
2018-01-18T03:49:57.121Z,99069.72
2018-01-18T03:50:59.592Z,99059.55
2018-01-18T03:52:02.069Z,99054.06
2018-01-18T03:53:04.544Z,99054.23
2018-01-18T03:54:07.024Z,99050.52
2018-01-18T03:55:09.479Z,99039.72
2018-01-18T03:56:11.929Z,99026.59
2018-01-18T03:57:14.391Z,99021.28
2018-01-18T03:58:16.837Z,99011.50
2018-01-18T03:59:19.286Z,99013.27
2018-01-18T04:00:21.760Z,98999.38
2018-01-18T04:01:24.250Z,99001.55
2018-01-18T04:02:26.728Z,98999.20
2018-01-18T04:03:29.178Z,98987.08
2018-01-18T04:04:31.640Z,98975.13
2018-01-18T04:05:34.091Z,98977.70
2018-01-18T04:06:36.542Z,98977.13
2018-01-18T04:07:39.018Z,98968.31
2018-01-18T04:08:41.470Z,98969.69
2018-01-18T04:09:43.926Z,98958.89
2018-01-18T04:10:46.392Z,98951.81
2018-01-18T04:11:48.845Z,98952.39
2018-01-18T04:12:51.293Z,98942.00
2018-01-18T04:13:53.746Z,98939.43
2018-01-18T04:14:56.198Z,98929.22
2018-01-18T04:15:58.660Z,98927.05
2018-01-18T04:17:01.110Z,98924.88
2018-01-18T04:18:03.588Z,98920.15
2018-01-18T04:19:06.038Z,98909.36
2018-01-18T04:20:08.490Z,98904.84
2018-01-18T04:21:10.951Z,98900.11
2018-01-18T04:22:13.405Z,98888.52
2018-01-18T04:23:15.865Z,98881.84
2018-01-18T04:24:18.343Z,98870.88
2018-01-18T04:25:20.798Z,98872.83
2018-01-18T04:26:23.264Z,98871.27
2018-01-18T04:27:25.719Z,98869.72
2018-01-18T04:28:28.192Z,98866.80
2018-01-18T04:29:30.642Z,98857.38
2018-01-18T04:30:33.111Z,98859.55
2018-01-18T04:31:35.558Z,98846.23
2018-01-18T04:32:38.024Z,98839.95
2018-01-18T04:33:40.473Z,98840.35
2018-01-18T04:34:42.922Z,98828.01
2018-01-18T04:35:45.392Z,98819.20
2018-01-18T04:36:47.842Z,98815.48
2018-01-18T04:37:50.303Z,98798.06
2018-01-18T04:38:52.761Z,98800.59
2018-01-18T04:39:55.236Z,98796.25
2018-01-18T04:40:57.686Z,98796.44
2018-01-18T04:42:00.137Z,98787.02
2018-01-18T04:43:02.607Z,98784.84
2018-01-18T04:44:05.072Z,98778.20
2018-01-18T04:45:07.534Z,98773.30
2018-01-18T04:46:10.002Z,98777.02
2018-01-18T04:47:12.467Z,98766.20
2018-01-18T04:48:14.922Z,98777.59
2018-01-18T04:49:17.383Z,98770.31
2018-01-18T04:50:19.842Z,98761.87
2018-01-18T04:51:22.309Z,98756.16
2018-01-18T04:52:24.770Z,98749.13
2018-01-18T04:53:27.264Z,98741.48
2018-01-18T04:54:29.761Z,98733.25
2018-01-18T04:55:32.236Z,98719.36
2018-01-18T04:56:34.694Z,98721.13
2018-01-18T04:57:37.154Z,98723.08
2018-01-18T04:58:39.637Z,98721.49
2018-01-18T04:59:42.106Z,98717.55
2018-01-18T05:00:44.586Z,98712.43
2018-01-18T05:01:47.061Z,98708.10
2018-01-18T05:02:49.564Z,98710.45
2018-01-18T05:03:52.030Z,98703.55
2018-01-18T05:04:54.527Z,98696.88
2018-01-18T05:05:56.991Z,98700.59
2018-01-18T05:06:59.446Z,98694.32
2018-01-18T05:08:01.911Z,98680.80
2018-01-18T05:09:04.374Z,98668.23
2018-01-18T05:10:06.852Z,98669.00
2018-01-18T05:11:09.328Z,98665.67
2018-01-18T05:12:11.782Z,98660.59
2018-01-18T05:13:14.239Z,98658.42
2018-01-18T05:14:16.804Z,98656.66
2018-01-18T05:15:19.284Z,98654.70
2018-01-18T05:16:21.746Z,98655.28
2018-01-18T05:17:24.198Z,98642.95
2018-01-18T05:18:26.655Z,98637.64
2018-01-18T05:19:29.116Z,98633.72
2018-01-18T05:20:31.569Z,98637.03
2018-01-18T05:21:34.111Z,98621.95
2018-01-18T05:22:36.583Z,98614.13
2018-01-18T05:23:39.034Z,98633.89
2018-01-18T05:24:41.497Z,98620.58
2018-01-18T05:25:43.976Z,98611.96
2018-01-18T05:26:46.705Z,98608.80
2018-01-18T05:27:49.268Z,98608.00
2018-01-18T05:28:51.713Z,98604.86
2018-01-18T05:29:54.176Z,98596.02
2018-01-18T05:30:56.630Z,98608.76
2018-01-18T05:31:59.142Z,98604.86
2018-01-18T05:33:01.612Z,98604.06
2018-01-18T05:34:04.217Z,98594.47
2018-01-18T05:35:06.700Z,98587.22
2018-01-18T05:36:09.221Z,98582.31
2018-01-18T05:37:11.695Z,98573.70
2018-01-18T05:38:14.168Z,98572.48
2018-01-18T05:39:16.626Z,98570.89
2018-01-18T05:40:19.097Z,98570.09
2018-01-18T05:41:21.553Z,98546.19
2018-01-18T05:42:24.005Z,98544.02
2018-01-18T05:43:26.464Z,98538.51
2018-01-18T05:44:28.930Z,98543.77
2018-01-18T05:45:31.390Z,98543.16
2018-01-18T05:46:33.842Z,98538.44
2018-01-18T05:47:36.307Z,98509.23
2018-01-18T05:48:38.762Z,98525.86
2018-01-18T05:49:41.244Z,98523.45
2018-01-18T05:50:43.726Z,98528.32
2018-01-18T05:51:46.190Z,98527.13
2018-01-18T05:52:48.675Z,98528.69
2018-01-18T05:53:51.151Z,98535.32
2018-01-18T05:54:53.678Z,98530.81
2018-01-18T05:55:56.160Z,98527.46
2018-01-18T05:56:58.640Z,98534.31
2018-01-18T05:58:01.116Z,98541.74
2018-01-18T05:59:03.609Z,98529.41
2018-01-18T06:00:06.073Z,98533.12
2018-01-18T06:01:08.553Z,98530.17
2018-01-18T06:02:11.036Z,98521.95
2018-01-18T06:03:13.512Z,98482.97
2018-01-18T06:04:16.018Z,98493.72
2018-01-18T06:05:18.496Z,98476.87
2018-01-18T06:06:20.961Z,98465.52
2018-01-18T06:07:23.441Z,98479.41
2018-01-18T06:08:25.920Z,98476.27
2018-01-18T06:09:28.377Z,98483.30
2018-01-18T06:10:30.954Z,98477.03
2018-01-18T06:11:33.440Z,98473.31
2018-01-18T06:12:35.893Z,98447.86
2018-01-18T06:13:38.397Z,98439.06
2018-01-18T06:14:40.853Z,98447.28
2018-01-18T06:15:43.332Z,98434.95
2018-01-18T06:16:45.794Z,98422.23
2018-01-18T06:17:48.282Z,98420.45
2018-01-18T06:18:50.756Z,98413.42
2018-01-18T06:19:53.216Z,98416.53
2018-01-18T06:20:55.678Z,98416.34
2018-01-18T06:21:58.164Z,98408.13
2018-01-18T06:23:00.643Z,98415.95
2018-01-18T06:24:03.135Z,98414.58
2018-01-18T06:25:05.667Z,98387.97
2018-01-18T06:26:08.136Z,98376.62
2018-01-18T06:27:10.605Z,98395.80
2018-01-18T06:28:13.088Z,98409.68
2018-01-18T06:29:15.546Z,98406.75
2018-01-18T06:30:18.052Z,98414.58
2018-01-18T06:31:20.532Z,98387.76
2018-01-18T06:32:23.011Z,98389.92
2018-01-18T06:33:25.502Z,98387.36
2018-01-18T06:34:27.991Z,98382.43
2018-01-18T06:35:30.471Z,98388.48
2018-01-18T06:36:32.964Z,98405.91
2018-01-18T06:37:35.440Z,98390.04
2018-01-18T06:38:37.906Z,98376.92
2018-01-18T06:39:40.381Z,98375.16
2018-01-18T06:40:42.866Z,98349.70
2018-01-18T06:41:45.342Z,98326.02
2018-01-18T06:42:47.808Z,98333.05
2018-01-18T06:43:50.284Z,98329.52
2018-01-18T06:44:52.756Z,98354.18
2018-01-18T06:45:55.206Z,98352.99
2018-01-18T06:46:57.670Z,98330.31
2018-01-18T06:48:00.188Z,98311.31
2018-01-18T06:49:02.653Z,98309.55
2018-01-18T06:50:05.118Z,98300.54
2018-01-18T06:51:07.591Z,98318.75
2018-01-18T06:52:10.064Z,98310.70
2018-01-18T06:53:12.514Z,98304.44
2018-01-18T06:54:14.972Z,98301.88
2018-01-18T06:55:17.439Z,98308.34
2018-01-18T06:56:19.918Z,98300.30
2018-01-18T06:57:22.392Z,98302.83
2018-01-18T06:58:24.864Z,98307.13
2018-01-18T06:59:27.330Z,98304.96
2018-01-18T07:00:29.780Z,98319.23
2018-01-18T07:01:32.271Z,98305.14
2018-01-18T07:02:34.744Z,98313.55
2018-01-18T07:03:37.244Z,98301.41
2018-01-18T07:04:39.810Z,98306.88
2018-01-18T07:05:42.308Z,98283.38
2018-01-18T07:06:44.780Z,98292.97
2018-01-18T07:07:47.256Z,98281.80
2018-01-18T07:08:49.811Z,98304.66
2018-01-18T07:09:52.288Z,98307.58
2018-01-18T07:10:54.756Z,98296.23
2018-01-18T07:11:57.232Z,98289.96
2018-01-18T07:12:59.721Z,98277.23
2018-01-18T07:14:02.204Z,98273.31
2018-01-18T07:15:04.665Z,98275.66
2018-01-18T07:16:07.130Z,98290.33
2018-01-18T07:17:09.607Z,98273.89
2018-01-18T07:18:12.070Z,98274.08
2018-01-18T07:19:14.551Z,98280.53
2018-01-18T07:20:17.031Z,98269.57
2018-01-18T07:21:19.495Z,98280.13
2018-01-18T07:22:22.070Z,98292.27
2018-01-18T07:23:24.547Z,98283.27
2018-01-18T07:24:27.018Z,98287.98
2018-01-18T07:25:29.496Z,98299.73
2018-01-18T07:26:31.996Z,98281.34
2018-01-18T07:27:34.474Z,98280.19
2018-01-18T07:28:36.936Z,98274.77
2018-01-18T07:29:39.386Z,98275.69
2018-01-18T07:30:41.870Z,98283.48
2018-01-18T07:31:44.353Z,98283.23
2018-01-18T07:32:46.840Z,98269.06
2018-01-18T07:33:49.337Z,98261.83
2018-01-18T07:34:51.820Z,98267.61
2018-01-18T07:35:54.304Z,98261.98
2018-01-18T07:36:56.807Z,98240.39
2018-01-18T07:37:59.257Z,98246.48
2018-01-18T07:39:01.720Z,98249.91
2018-01-18T07:40:04.222Z,98251.07
2018-01-18T07:41:06.696Z,98252.77
2018-01-18T07:42:09.194Z,98239.72
2018-01-18T07:43:11.738Z,98237.32
2018-01-18T07:44:14.198Z,98227.04
2018-01-18T07:45:16.662Z,98236.85
2018-01-18T07:46:19.126Z,98248.45
2018-01-18T07:47:21.624Z,98235.69
2018-01-18T07:48:24.086Z,98231.98
2018-01-18T07:49:26.546Z,98224.56
2018-01-18T07:50:29.020Z,98248.82
2018-01-18T07:51:31.492Z,98227.83
2018-01-18T07:52:33.988Z,98225.03
2018-01-18T07:53:36.445Z,98225.41
2018-01-18T07:54:38.924Z,98235.86
2018-01-18T07:55:41.390Z,98233.76
2018-01-18T07:56:43.863Z,98231.14
2018-01-18T07:57:46.360Z,98225.80
2018-01-18T07:58:48.825Z,98217.83
2018-01-18T07:59:51.302Z,98211.46
2018-01-18T08:00:53.762Z,98207.49
2018-01-18T08:01:56.226Z,98236.86
2018-01-18T08:03:04.458Z,98229.06
2018-01-18T08:04:12.468Z,98222.66
2018-01-18T08:05:14.944Z,98225.45
2018-01-18T08:06:17.406Z,98210.13
2018-01-18T08:07:19.933Z,98224.56
2018-01-18T08:08:22.446Z,98215.92
2018-01-18T08:09:24.932Z,98205.30
2018-01-18T08:10:27.408Z,98207.44
2018-01-18T08:11:29.888Z,98196.30
2018-01-18T08:12:32.423Z,98226.91
2018-01-18T08:13:34.906Z,98224.82
2018-01-18T08:14:37.372Z,98212.20
2018-01-18T08:15:39.851Z,98205.98
2018-01-18T08:16:42.318Z,98213.84
2018-01-18T08:17:44.781Z,98199.03
2018-01-18T08:18:47.275Z,98194.47
2018-01-18T08:19:49.837Z,98192.96
2018-01-18T08:20:52.332Z,98196.38
2018-01-18T08:21:54.806Z,98191.69
2018-01-18T08:22:57.296Z,98193.27
2018-01-18T08:23:59.779Z,98193.27
2018-01-18T08:25:02.240Z,98191.50
2018-01-18T08:26:04.700Z,98215.78
2018-01-18T08:27:07.162Z,98196.03
2018-01-18T08:28:09.624Z,98191.34
2018-01-18T08:29:12.111Z,98196.70
2018-01-18T08:30:14.565Z,98200.31
2018-01-18T08:31:17.075Z,98185.91
2018-01-18T08:32:19.551Z,98195.55
2018-01-18T08:33:22.014Z,98188.25
2018-01-18T08:34:24.496Z,98171.86
2018-01-18T08:35:26.992Z,98190.01
2018-01-18T08:36:29.414Z,98173.05
2018-01-18T08:37:31.877Z,98184.70
2018-01-18T08:38:34.352Z,98174.73
2018-01-18T08:39:36.835Z,98176.08
2018-01-18T08:40:39.289Z,98175.83
2018-01-18T08:41:41.757Z,98174.64
2018-01-18T08:42:44.224Z,98157.16
2018-01-18T08:43:46.674Z,98153.83
2018-01-18T08:44:49.155Z,98163.78
2018-01-18T08:45:51.606Z,98144.36
2018-01-18T08:46:54.063Z,98159.05
2018-01-18T08:47:56.514Z,98166.52
2018-01-18T08:48:58.986Z,98157.16
2018-01-18T08:50:01.462Z,98179.96
2018-01-18T08:51:03.936Z,98160.66
2018-01-18T08:52:06.411Z,98172.04
2018-01-18T08:53:08.875Z,98151.89
2018-01-18T08:54:11.326Z,98173.45
2018-01-18T08:55:13.822Z,98154.86
2018-01-18T08:56:16.296Z,98155.84
2018-01-18T08:57:18.778Z,98144.86
2018-01-18T08:58:21.234Z,98151.89
2018-01-18T08:59:23.686Z,98143.47
2018-01-18T09:00:26.197Z,98139.36
2018-01-18T09:01:28.664Z,98135.73
2018-01-18T09:02:31.133Z,98137.58
2018-01-18T09:03:33.586Z,98131.61
2018-01-18T09:04:36.046Z,98152.49
2018-01-18T09:05:38.538Z,98135.14
2018-01-18T09:06:40.993Z,98141.92
2018-01-18T09:07:43.476Z,98133.34
2018-01-18T09:08:45.933Z,98130.08
2018-01-18T09:09:48.386Z,98137.58
2018-01-18T09:10:50.878Z,98134.69
2018-01-18T09:11:53.348Z,98107.64
2018-01-18T09:12:55.830Z,98122.00
2018-01-18T09:13:58.286Z,98130.11
2018-01-18T09:15:01.120Z,98125.22
2018-01-18T09:16:03.621Z,98123.66
2018-01-18T09:17:06.092Z,98141.53
2018-01-18T09:18:08.546Z,98129.23
2018-01-18T09:19:11.010Z,98126.91
2018-01-18T09:20:13.476Z,98130.16
2018-01-18T09:21:15.962Z,98151.25
2018-01-18T09:22:18.418Z,98154.05
2018-01-18T09:23:20.873Z,98149.61
2018-01-18T09:24:23.325Z,98142.20
2018-01-18T09:25:25.778Z,98132.43
2018-01-18T09:26:28.250Z,98145.61
2018-01-18T09:27:30.712Z,98160.79
2018-01-18T09:28:33.167Z,98154.50
2018-01-18T09:29:35.622Z,98153.72
2018-01-18T09:30:38.081Z,98158.84
2018-01-18T09:31:40.562Z,98165.91
2018-01-18T09:32:43.014Z,98166.89
2018-01-18T09:33:45.480Z,98169.26
2018-01-18T09:34:47.938Z,98181.25
2018-01-18T09:35:50.403Z,98172.41
2018-01-18T09:36:52.883Z,98156.87
2018-01-18T09:37:55.338Z,98175.39
2018-01-18T09:38:57.809Z,98176.22
2018-01-18T09:40:00.284Z,98154.19
2018-01-18T09:41:02.738Z,98165.41
2018-01-18T09:42:05.248Z,98184.92
2018-01-18T09:43:07.702Z,98182.16
2018-01-18T09:44:10.183Z,98188.27
2018-01-18T09:45:12.708Z,98184.53
2018-01-18T09:46:15.168Z,98208.56
2018-01-18T09:47:17.655Z,98204.83
2018-01-18T09:48:20.214Z,98201.09
2018-01-18T09:49:22.666Z,98188.70
2018-01-18T09:50:25.195Z,98207.98
2018-01-18T09:51:27.680Z,98204.83
2018-01-18T09:52:30.166Z,98235.92
2018-01-18T09:53:32.640Z,98224.70
2018-01-18T09:54:35.330Z,98220.38
2018-01-18T09:55:37.812Z,98181.61
2018-01-18T09:56:40.347Z,98229.62
2018-01-18T09:57:42.830Z,98242.22
2018-01-18T09:58:46.042Z,98210.97
2018-01-18T09:59:48.644Z,98232.02
2018-01-18T10:00:51.110Z,98230.84
2018-01-18T10:01:53.576Z,98235.17
2018-01-18T10:02:56.054Z,98243.48
2018-01-18T10:03:58.515Z,98231.08
2018-01-18T10:05:00.984Z,98244.06
2018-01-18T10:06:03.548Z,98249.19
2018-01-18T10:07:06.006Z,98262.57
2018-01-18T10:08:08.486Z,98281.67
2018-01-18T10:09:10.970Z,98253.91
2018-01-18T10:10:13.431Z,98275.17
2018-01-18T10:11:15.889Z,98273.00
2018-01-18T10:12:18.342Z,98255.28
2018-01-18T10:13:20.827Z,98295.61
2018-01-18T10:14:23.285Z,98291.86
2018-01-18T10:15:25.763Z,98311.74
2018-01-18T10:16:28.217Z,98312.73
2018-01-18T10:17:30.690Z,98306.27
2018-01-18T10:18:33.165Z,98326.35
2018-01-18T10:19:35.636Z,98317.89
2018-01-18T10:20:38.107Z,98332.66
2018-01-18T10:21:40.562Z,98319.27
2018-01-18T10:22:43.036Z,98302.54
2018-01-18T10:23:45.517Z,98360.85
2018-01-18T10:24:47.990Z,98365.58
2018-01-18T10:25:50.470Z,98354.36
2018-01-18T10:26:52.939Z,98388.58
2018-01-18T10:27:55.393Z,98411.00
2018-01-18T10:28:57.878Z,98421.77
2018-01-18T10:30:00.342Z,98437.64
2018-01-18T10:31:02.797Z,98418.52
2018-01-18T10:32:05.268Z,98428.34
2018-01-18T10:33:07.726Z,98436.95
2018-01-18T10:34:10.206Z,98461.20
2018-01-18T10:35:12.666Z,98457.08
2018-01-18T10:36:15.144Z,98456.88
2018-01-18T10:37:17.602Z,98469.69
2018-01-18T10:38:20.074Z,98467.13
2018-01-18T10:39:22.582Z,98493.50
2018-01-18T10:40:25.043Z,98485.23
2018-01-18T10:41:27.511Z,98476.56
2018-01-18T10:42:29.982Z,98477.77
2018-01-18T10:43:32.447Z,98503.52
2018-01-18T10:44:34.945Z,98478.72
2018-01-18T10:45:37.440Z,98479.06
2018-01-18T10:46:39.915Z,98481.41
2018-01-18T10:47:42.389Z,98508.55
2018-01-18T10:48:44.862Z,98503.25
2018-01-18T10:49:47.495Z,98493.61
2018-01-18T10:50:49.980Z,98511.33
2018-01-18T10:51:52.433Z,98506.08
2018-01-18T10:52:54.908Z,98536.20
2018-01-18T10:53:57.396Z,98548.61
2018-01-18T10:54:59.888Z,98540.16
2018-01-18T10:56:02.368Z,98537.80
2018-01-18T10:57:04.829Z,98558.64
2018-01-18T10:58:07.282Z,98560.00
2018-01-18T10:59:09.737Z,98549.97
2018-01-18T11:00:12.254Z,98568.84
2018-01-18T11:01:14.702Z,98554.27
2018-01-18T11:02:17.158Z,98581.56
2018-01-18T11:03:19.628Z,98575.25
2018-01-18T11:04:22.082Z,98597.66
2018-01-18T11:05:24.576Z,98581.16
2018-01-18T11:06:27.169Z,98590.60
2018-01-18T11:07:29.538Z,98608.13
2018-01-18T11:08:32.014Z,98606.04
2018-01-18T11:09:34.507Z,98621.00
2018-01-18T11:10:36.986Z,98610.00
2018-01-18T11:11:39.452Z,98634.63
2018-01-18T11:12:41.906Z,98646.03
2018-01-18T11:13:44.358Z,98672.81
2018-01-18T11:14:46.837Z,98654.09
2018-01-18T11:15:49.332Z,98656.45
2018-01-18T11:16:51.789Z,98661.16
2018-01-18T11:17:54.260Z,98659.56
2018-01-18T11:18:56.736Z,98655.23
2018-01-18T11:19:59.203Z,98663.04
2018-01-18T11:21:01.682Z,98668.73
2018-01-18T11:22:04.141Z,98662.69
2018-01-18T11:23:06.594Z,98678.84
2018-01-18T11:24:09.053Z,98684.56
2018-01-18T11:25:11.528Z,98691.47
2018-01-18T11:26:14.001Z,98695.82
2018-01-18T11:27:16.453Z,98698.01
2018-01-18T11:28:19.046Z,98702.78
2018-01-18T11:29:22.811Z,98707.66
2018-01-18T11:30:25.276Z,98729.67
2018-01-18T11:31:27.763Z,98711.94
2018-01-18T11:32:30.213Z,98730.22
2018-01-18T11:33:32.666Z,98722.13
2018-01-18T11:34:35.136Z,98720.08
2018-01-18T11:35:37.618Z,98726.36
2018-01-18T11:36:40.090Z,98726.74
2018-01-18T11:37:42.560Z,98754.46
2018-01-18T11:38:45.011Z,98759.18
2018-01-18T11:39:47.481Z,98741.66
2018-01-18T11:40:49.948Z,98737.90
2018-01-18T11:41:52.443Z,98737.90
2018-01-18T11:42:54.898Z,98752.09
2018-01-18T11:43:57.354Z,98773.14
2018-01-18T11:44:59.816Z,98741.26
2018-01-18T11:46:02.288Z,98738.88
2018-01-18T11:47:04.762Z,98754.83
2018-01-18T11:48:07.218Z,98770.37
2018-01-18T11:49:09.688Z,98760.73
2018-01-18T11:50:12.138Z,98786.10
2018-01-18T11:51:14.594Z,98753.43
2018-01-18T11:52:17.074Z,98773.43
2018-01-18T11:53:19.529Z,98748.23
2018-01-18T11:54:22.060Z,98773.20
2018-01-18T11:55:24.519Z,98775.77
2018-01-18T11:56:26.988Z,98809.41
2018-01-18T11:57:29.476Z,98791.11
2018-01-18T11:58:31.945Z,98768.67
2018-01-18T11:59:34.416Z,98799.37
2018-01-18T12:00:36.900Z,98803.31
2018-01-18T12:01:39.372Z,98815.70
2018-01-18T12:02:41.853Z,98803.70
2018-01-18T12:03:44.316Z,98805.84
2018-01-18T12:04:46.782Z,98805.61
2018-01-18T12:05:49.263Z,98807.10
2018-01-18T12:06:51.736Z,98810.77
2018-01-18T12:07:54.234Z,98822.72
2018-01-18T12:08:56.740Z,98829.95
2018-01-18T12:09:59.219Z,98821.06
2018-01-18T12:11:01.677Z,98847.54
2018-01-18T12:12:04.172Z,98838.44
2018-01-18T12:13:06.650Z,98827.59
2018-01-18T12:14:09.140Z,98830.51